This is the latest recevied weather packets stored in our database for station/object GW1469. If no packets are shown the sender has not sent any weather packets the latest 10 day(s).
| Time | Temp. | Humidity | Pressure | Rain* | Wind** | Luminosity | Snow |
|---|---|---|---|---|---|---|---|
| 1777274310 | 9.44° C | 99% | 1028.1 hPa | 0 mm | - | - | - |
| 1777273610 | 8.89° C | 99% | 1027.7 hPa | 0 mm | - | - | - |
| 1777271065 | 8.89° C | 99% | 1027.7 hPa | 0 mm | - | - | - |
| 1777270357 | 9.44° C | 99% | 1028.1 hPa | 0 mm | - | - | - |
| 1777269979 | 9.44° C | 99% | 1028.1 hPa | 0 mm | - | - | - |
| 1777269623 | 9.44° C | 99% | 1028.1 hPa | 0 mm | - | - | - |
| 1777267126 | 10° C | 99% | 1028.1 hPa | 0 mm | - | - | - |
| 1777266733 | 10° C | 99% | 1028.1 hPa | 0 mm | - | - | - |
| 1777263508 | 10.56° C | 99% | 1028.1 hPa | 0 mm | - | - | - |
| 1777254873 | 13.33° C | 88% | 1027 hPa | 0 mm | - | - | - |
| 1777254135 | 13.89° C | 87% | 1026.7 hPa | 0 mm | - | - | - |
| 1777253771 | 13.89° C | 86% | 1027 hPa | 0 mm | - | - | - |
| 1777247674 | 18.33° C | 70% | 1025.7 hPa | 0 mm | - | - | - |
| 1777245158 | 20.56° C | 58% | 1025.3 hPa | 0 mm | - | - | - |
| 1777244805 | 20.56° C | 59% | 1025 hPa | 0 mm | - | - | - |
| 1777241198 | 22.22° C | 53% | 1024.7 hPa | 0 mm | - | - | - |
| 1777240488 | 22.22° C | 54% | 1024.7 hPa | 0 mm | - | - | - |
| 1777238679 | 22.78° C | 52% | 1024.3 hPa | 0 mm | - | - | - |
| 1777235814 | 22.78° C | 53% | 1024.3 hPa | 0 mm | - | - | - |
| 1777234360 | 23.33° C | 50% | 1024.3 hPa | 0 mm | - | - | - |
| 1777234000 | 23.33° C | 51% | 1024.3 hPa | 0 mm | - | - | - |
| 1777231817 | 22.78° C | 52% | 1024.3 hPa | 0 mm | - | - | - |
| 1777229659 | 23.33° C | 51% | 1025 hPa | 0 mm | - | - | - |
| 1777227175 | 22.22° C | 52% | 1025 hPa | 0 mm | - | - | - |
| 1777222106 | 19.44° C | 63% | 1025.3 hPa | 0 mm | - | - | - |
* Rain since midnight (hover to see other rain measurements)
** Current wind speed in m/s (hover to see current wind gust speed)